Data for 07/22/2017

Time Sea-Level Adjusted Pressure Absolute Pressure Temperature Relative Humidity Dew Point   
(mb) (inHg) (mb) (inHg) (C) (F) (%) (C) (F)
00:05 1023 30.21 853 25.19 14.1 57.5 41 1.3 34.3
00:10 1023 30.21 853 25.19 14.1 57.4 39 0.4 32.8
00:15 1023 30.21 853 25.19 14.6 58.3 35 -0.4 31.3
00:20 1024 30.24 853 25.19 15.2 59.4 34 -0.6 31
00:25 1024 30.24 853 25.19 15.4 59.8 33 -0.6 30.9
00:30 1024 30.24 853 25.19 15.8 60.4 32 -0.9 30.3
00:35 1024 30.24 853 25.19 15.3 59.5 35 0.2 32.4
00:40 1024 30.24 853 25.19 14.9 58.8 33 -1.1 30.1
00:45 1024 30.24 853 25.19 15 59 35 -0.3 31.4
00:50 1024 30.24 853 25.19 14.8 58.7 35 -0.5 31.2
00:55 1024 30.24 853 25.19 14.6 58.3 36 -0.2 31.6
01:00 1024 30.24 853 25.19 14.4 57.9 36 -0.3 31.4
01:05 1024 30.24 853 25.19 14.3 57.7 36 -0.5 31.1
01:10 1024 30.24 853 25.19 14.2 57.5 36 -0.4 31.3
01:15 1024 30.24 853 25.19 14.1 57.3 36 -0.7 30.7
01:20 1024 30.24 853 25.19 14.1 57.4 36 -0.6 30.9
01:25 1024 30.24 853 25.19 14.1 57.4 36 -0.8 30.5
01:30 1024 30.24 853 25.19 14.3 57.8 34 -1.3 29.7
01:35 1024 30.24 853 25.19 14.7 58.4 33 -1.4 29.5
01:40 1024 30.24 853 25.19 14.9 58.8 32 -1.7 28.9
01:45 1024 30.24 853 25.19 15.3 59.5 30 -1.9 28.6
01:50 1024 30.24 853 25.19 15.4 59.7 31 -1.6 29.1
01:55 1024 30.24 853 25.19 15.5 59.9 31 -1.6 29.2
02:00 1024 30.24 853 25.19 15.3 59.5 32 -1 30.1
02:05 1024 30.24 853 25.19 15 59 34 -0.8 30.5
02:10 1024 30.24 853 25.19 14.7 58.4 34 -1.1 30
02:15 1024 30.24 853 25.19 14.5 58.1 36 -0.4 31.3
02:20 1024 30.24 853 25.19 14 57.2 39 0.2 32.4
02:25 1024 30.24 853 25.19 13.6 56.6 36 -1.2 29.9
02:30 1024 30.24 853 25.19 14 57.2 34 -1.4 29.4
02:35 1024 30.24 853 25.19 14.1 57.3 34 -1.3 29.6
02:40 1024 30.24 853 25.19 13.9 57 35 -1.3 29.6
02:45 1024 30.24 853 25.19 13.8 56.9 36 -1 30.2
02:50 1024 30.24 853 25.19 13.8 56.8 35 -1.3 29.7
02:55 1024 30.24 853 25.19 13.9 56.9 35 -1.4 29.5
03:00 1024 30.24 853 25.19 13.8 56.9 35 -1.2 29.8
03:05 1024 30.24 853 25.19 13.7 56.7 35 -1.2 29.8
03:10 1024 30.24 853 25.19 13.7 56.7 34 -1.9 28.7
03:15 1024 30.24 853 25.19 14.1 57.4 33 -1.9 28.7
03:20 1024 30.24 853 25.19 14.4 57.8 33 -1.6 29.1
03:25 1024 30.24 853 25.19 14.3 57.7 33 -1.7 28.9
03:30 1024 30.24 853 25.19 14.2 57.5 33 -1.6 29
03:35 1024 30.24 853 25.19 14 57.2 33 -1.8 28.7
03:40 1024 30.24 853 25.19 14.2 57.6 33 -1.6 29.1
03:45 1024 30.24 853 25.19 14 57.3 35 -1.1 30
03:50 1024 30.24 853 25.19 13.8 56.9 34 -1.8 28.8
03:55 1024 30.24 853 25.19 14 57.2 33 -1.9 28.6
04:00 1024 30.24 853 25.19 14.1 57.3 34 -1.5 29.3
04:05 1024 30.24 853 25.19 13.6 56.4 37 -0.9 30.4
04:10 1024 30.24 853 25.19 13.2 55.8 38 -0.7 30.7
04:15 1024 30.24 853 25.19 12.7 54.9 40 -0.5 31.2
04:20 1024 30.24 853 25.19 12.2 54 41 -0.4 31.2
04:25 1024 30.24 853 25.19 12 53.6 43 -0.3 31.5
04:30 1024 30.24 853 25.19 11.8 53.3 42 -0.5 31.1
04:35 1024 30.24 853 25.19 11.8 53.3 42 -0.7 30.8
04:40 1024 30.24 853 25.19 12 53.5 41 -0.8 30.6
04:45 1024 30.24 853 25.19 12.2 53.9 39 -1.3 29.7
04:50 1024 30.24 853 25.19 12.6 54.7 37 -1.6 29.1
04:55 1024 30.24 853 25.19 13 55.4 36 -1.7 28.9
05:00 1024 30.24 853 25.19 13.3 56 35 -1.7 28.9
05:05 1024 30.24 853 25.19 13.4 56.1 36 -1.2 29.8
05:10 1024 30.24 853 25.19 13.3 55.9 37 -1.2 29.8
05:15 1024 30.24 853 25.19 13.1 55.6 38 -0.8 30.5
05:20 1024 30.24 854 25.22 12.8 55.1 39 -0.7 30.8
05:25 1024 30.24 854 25.22 12.6 54.7 41 -0.3 31.5
05:30 1024 30.24 854 25.22 12.6 54.6 39 -1.1 30.1
05:35 1024 30.24 854 25.22 12.9 55.2 39 -0.6 30.9
05:40 1024 30.24 854 25.22 13 55.4 39 -0.6 30.9
05:45 1025 30.27 854 25.22 12.9 55.2 40 -0.5 31.2
05:50 1025 30.27 854 25.22 12.8 55 41 0 32
05:55 1025 30.27 854 25.22 12.6 54.7 43 0.3 32.5
06:00 1025 30.27 854 25.22 12.6 54.6 43 0.2 32.4
06:05 1025 30.27 854 25.22 12.6 54.6 42 0.1 32.2
06:10 1025 30.27 854 25.22 12.7 54.8 43 0.5 33
06:15 1025 30.27 854 25.22 12.8 55 43 0.6 33.1
06:20 1025 30.27 854 25.22 12.8 55 42 0.3 32.6
06:25 1025 30.27 854 25.22 13.2 55.8 38 -0.6 31
06:30 1025 30.27 854 25.22 13.8 56.8 38 -0.3 31.4
06:35 1025 30.27 854 25.22 14.1 57.4 38 -0.1 31.9
06:40 1025 30.27 854 25.22 14.3 57.8 36 -0.6 30.9
06:45 1025 30.27 854 25.22 14.5 58.1 38 0.5 32.9
06:50 1025 30.27 854 25.22 14.8 58.6 37 0.2 32.4
06:55 1025 30.27 854 25.22 14.7 58.5 39 0.9 33.6
07:00 1025 30.27 854 25.22 15 59 37 0.4 32.7
07:05 1025 30.27 854 25.22 15.3 59.5 36 0.6 33
07:10 1025 30.27 854 25.22 15.4 59.8 37 1 33.8
07:15 1025 30.27 854 25.22 15.6 60.1 35 0.4 32.8
07:20 1025 30.27 854 25.22 16.1 60.9 36 1.2 34.2
07:25 1025 30.27 854 25.22 16.5 61.6 36 1.6 34.9
07:30 1025 30.27 854 25.22 17.2 63 34 1.2 34.1
07:35 1025 30.27 854 25.22 17.8 64.1 31 0.5 32.9
07:40 1025 30.27 854 25.22 18.4 65.1 29 0.2 32.4
07:45 1025 30.27 854 25.22 19.2 66.6 29 1 33.8
07:50 1025 30.27 854 25.22 19.8 67.7 27 0.3 32.5
07:55 1025 30.27 854 25.22 20.1 68.2 27 0.6 33
08:00 1025 30.27 854 25.22 20.3 68.5 25 -0.3 31.5
08:05 1025 30.27 855 25.25 20.1 68.1 26 0.2 32.4
08:10 1025 30.27 855 25.25 20.1 68.2 25 -0.3 31.4
08:15 1025 30.27 855 25.25 20.7 69.2 25 -0.1 31.8
08:20 1025 30.27 855 25.25 20.6 69 24 -0.6 31
08:25 1025 30.27 855 25.25 20.8 69.5 25 0.3 32.5
08:30 1025 30.27 855 25.25 20.3 68.5 26 0.5 32.9
08:35 1025 30.27 855 25.25 21.1 69.9 25 0.5 32.8
08:40 1025 30.27 855 25.25 21 69.9 26 1.1 34
08:45 1025 30.27 855 25.25 20.1 68.2 29 1.5 34.7
08:50 1025 30.27 855 25.25 20.5 69 26 0.3 32.5
08:55 1025 30.27 855 25.25 21.4 70.5 24 0.4 32.7
09:00 1025 30.27 855 25.25 22 71.7 24 0.8 33.4
09:05 1025 30.27 855 25.25 22.3 72.1 24 1.1 33.9
09:10 1025 30.27 855 25.25 22.5 72.5 23 0.6 33
09:15 1025 30.27 854 25.22 22.3 72.1 23 0.6 33.1
09:20 1025 30.27 854 25.22 22.6 72.6 21 -0.9 30.4
09:25 1025 30.27 854 25.22 23.1 73.5 20 -0.9 30.4
09:30 1025 30.27 854 25.22 23.1 73.6 22 0.3 32.5
09:35 1025 30.27 854 25.22 23.4 74.1 22 0.4 32.8
09:40 1025 30.27 854 25.22 23.5 74.3 22 0.7 33.2
09:45 1025 30.27 854 25.22 23.8 74.8 20 -0.5 31.1
09:50 1025 30.27 854 25.22 23.8 74.8 22 0.8 33.4
09:55 1025 30.27 854 25.22 24 75.1 21 0.5 32.9
10:00 1025 30.27 854 25.22 24.3 75.7 18 -1 30.1
10:05 1025 30.27 854 25.22 24.6 76.2 19 -0 32
10:10 1025 30.27 854 25.22 24.7 76.5 19 -0.5 31
10:15 1025 30.27 854 25.22 24.6 76.3 17 -2 28.5
10:20 1025 30.27 854 25.22 24 75.1 16 -3.1 26.5
10:25 1025 30.27 854 25.22 24.6 76.3 17 -1.7 29
10:30 1025 30.27 854 25.22 25 76.9 17 -1.5 29.2
10:35 1025 30.27 854 25.22 25.3 77.6 18 -0.4 31.2
10:40 1025 30.27 854 25.22 25.4 77.6 18 -0.5 31
10:45 1025 30.27 854 25.22 25.5 77.9 16 -2.3 27.9
10:50 1025 30.27 854 25.22 24.9 76.9 19 -0.2 31.6
10:55 1025 30.27 854 25.22 24.9 76.8 17 -1.2 29.8
11:00 1025 30.27 854 25.22 24.7 76.5 18 -0.6 30.9
11:05 1025 30.27 854 25.22 25.4 77.8 16 -1.6 29.1
11:10 1025 30.27 854 25.22 26.2 79.2 15 -2 28.4
11:15 1025 30.27 854 25.22 25.6 78 15 -2.4 27.6
11:20 1025 30.27 854 25.22 26 78.8 15 -2.8 27
11:25 1025 30.27 854 25.22 25.9 78.6 14 -3.1 26.4
11:30 1025 30.27 854 25.22 25.4 77.7 17 -1.1 30.1
11:35 1025 30.27 854 25.22 25.7 78.2 15 -2.8 27
11:40 1025 30.27 854 25.22 25.7 78.2 14 -3.4 25.9
11:45 1025 30.27 854 25.22 26.1 78.9 14 -3.2 26.3
11:50 1025 30.27 854 25.22 25.1 77.2 15 -3.4 26
11:55 1025 30.27 854 25.22 25.3 77.5 15 -3.1 26.4
12:00 1025 30.27 854 25.22 25.8 78.4 14 -3.7 25.4
12:05 1025 30.27 854 25.22 25.3 77.5 14 -3.6 25.6
12:10 1025 30.27 854 25.22 26.2 79.1 15 -2.6 27.3
12:15 1024 30.24 854 25.22 26.8 80.2 14 -3.2 26.3
12:20 1024 30.24 854 25.22 26.8 80.2 13 -3.4 25.8
12:25 1024 30.24 854 25.22 26.2 79.1 12 -4.7 23.5
12:30 1024 30.24 854 25.22 26 78.7 12 -5.4 22.3
12:35 1024 30.24 853 25.19 26.8 80.2 12 -4.6 23.6
12:40 1024 30.24 853 25.19 27.1 80.7 11 -6.1 21
12:45 1024 30.24 853 25.19 27.7 81.8 11 -5.2 22.7
12:50 1024 30.24 853 25.19 27.6 81.7 11 -5.1 22.8
12:55 1024 30.24 853 25.19 26.8 80.3 11 -6.1 21
13:00 1024 30.24 853 25.19 26.7 80.1 11 -6.2 20.9
13:05 1024 30.24 853 25.19 26.9 80.3 11 -5.9 21.5
13:10 1024 30.24 853 25.19 27.1 80.8 10 -7.4 18.8
13:15 1024 30.24 853 25.19 28 82.4 10 -5.7 21.7
13:20 1024 30.24 853 25.19 28.2 82.8 11 -5.1 22.8
13:25 1024 30.24 853 25.19 28.2 82.8 11 -5 23
13:30 1024 30.24 853 25.19 28.2 82.7 10 -5.9 21.4
13:35 1024 30.24 853 25.19 28 82.5 11 -5.2 22.6
13:40 1024 30.24 853 25.19 28.2 82.8 11 -4.9 23.1
13:45 1024 30.24 853 25.19 28.1 82.5 11 -4.9 23.3
13:50 1024 30.24 853 25.19 27.6 81.7 10 -6.2 20.8
13:55 1024 30.24 853 25.19 27.9 82.2 11 -5 23
14:00 1024 30.24 853 25.19 28.2 82.7 12 -4 24.8
14:05 1024 30.24 853 25.19 28.2 82.7 11 -5.2 22.7
14:10 1024 30.24 853 25.19 28.1 82.6 11 -5.1 22.9
14:15 1024 30.24 853 25.19 28.5 83.3 13 -2.7 27.2
14:20 1024 30.24 853 25.19 28.2 82.8 12 -3.3 26.1
14:25 1024 30.24 853 25.19 28.3 83 12 -4.1 24.7
14:30 1024 30.24 853 25.19 27.9 82.2 11 -4.5 23.9
14:35 1024 30.24 853 25.19 27.8 82 11 -4.5 23.9
14:40 1023 30.21 853 25.19 27.9 82.3 12 -4 24.8
14:45 1024 30.24 853 25.19 28.8 83.8 12 -3.4 25.8
14:50 1024 30.24 853 25.19 28.3 83 12 -3.9 24.9
14:55 1024 30.24 853 25.19 28.7 83.7 11 -4.4 24.2
15:00 1023 30.21 853 25.19 29.2 84.6 12 -3.1 26.3
15:05 1023 30.21 853 25.19 28.9 84 12 -2.7 27.1
15:10 1023 30.21 853 25.19 28.8 83.8 12 -2.8 26.9
15:15 1023 30.21 853 25.19 28.8 83.8 11 -3.9 25
15:20 1023 30.21 852 25.16 29.4 84.9 12 -2.9 26.7
15:25 1023 30.21 852 25.16 29.1 84.4 11 -3.7 25.4
15:30 1023 30.21 852 25.16 28.8 83.9 11 -3.9 25
15:35 1023 30.21 852 25.16 28.6 83.4 12 -3.8 25.1
15:40 1023 30.21 852 25.16 28.2 82.7 12 -3.7 25.3
15:45 1023 30.21 852 25.16 28.7 83.7 11 -3.9 25
15:50 1023 30.21 852 25.16 28.9 84.1 11 -4.3 24.3
15:55 1023 30.21 852 25.16 29.2 84.5 11 -4.1 24.6
16:00 1023 30.21 852 25.16 29.1 84.4 11 -4.1 24.7
16:05 1023 30.21 852 25.16 29.3 84.8 11 -4 24.8
16:10 1023 30.21 852 25.16 29 84.1 10 -4.8 23.3
16:15 1023 30.21 852 25.16 28.8 83.9 11 -4.3 24.2
16:20 1023 30.21 852 25.16 29.3 84.7 10 -5.1 22.8
16:25 1023 30.21 852 25.16 29 84.3 11 -4.3 24.3
16:30 1023 30.21 852 25.16 28.5 83.4 10 -5.3 22.5
16:35 1023 30.21 852 25.16 28.7 83.6 11 -4.4 24.1
16:40 1023 30.21 852 25.16 28.7 83.7 11 -4.5 24
16:45 1023 30.21 852 25.16 29.1 84.4 10 -5.3 22.4
16:50 1023 30.21 852 25.16 29.4 85 10 -5.2 22.6
16:55 1023 30.21 852 25.16 29.8 85.6 10 -5.3 22.4
17:00 1022 30.18 852 25.16 29.2 84.5 11 -4 24.8
17:05 1022 30.18 852 25.16 29.2 84.5 10 -5.1 22.7
17:10 1022 30.18 852 25.16 29.2 84.6 11 -4.5 23.9
17:15 1022 30.18 852 25.16 29.4 84.9 10 -5.1 22.9
17:20 1022 30.18 852 25.16 29.6 85.3 10 -5.2 22.6
17:25 1022 30.18 852 25.16 30 85.9 10 -5 22.9
17:30 1022 30.18 852 25.16 30 86 9 -5.3 22.4
17:35 1022 30.18 852 25.16 29.7 85.5 11 -3.3 26
17:40 1022 30.18 851 25.13 29.5 85.1 10 -5.1 22.8
17:45 1022 30.18 851 25.13 28.9 84.1 10 -4.8 23.3
17:50 1022 30.18 852 25.16 29 84.2 10 -5.6 22
17:55 1022 30.18 852 25.16 29 84.3 10 -4.8 23.4
18:00 1022 30.18 852 25.16 28.8 83.8 10 -5.2 22.6
18:05 1022 30.18 851 25.13 28.9 84 10 -5 23
18:10 1022 30.18 851 25.13 29.2 84.6 11 -4.2 24.5
18:15 1022 30.18 851 25.13 29.3 84.7 10 -4.6 23.8
18:20 1022 30.18 851 25.13 28.9 84 11 -4.8 23.3
18:25 1022 30.18 851 25.13 28.4 83.2 11 -4.5 23.9
18:30 1022 30.18 851 25.13 28.3 82.9 11 -4.2 24.4
18:35 1022 30.18 851 25.13 28.2 82.7 10 -5.7 21.7
18:40 1022 30.18 851 25.13 28 82.3 11 -5.1 22.7
18:45 1022 30.18 851 25.13 27.9 82.2 12 -4.4 24.1
18:50 1022 30.18 851 25.13 27.8 82.1 11 -4.8 23.4
18:55 1022 30.18 851 25.13 27.6 81.8 11 -5.1 22.9
19:00 1022 30.18 851 25.13 27.5 81.4 12 -4.1 24.6
19:05 1022 30.18 851 25.13 27.3 81.2 12 -4.7 23.5
19:10 1022 30.18 851 25.13 27.2 80.9 12 -4.9 23.2
19:15 1022 30.18 851 25.13 27.2 80.9 12 -4.7 23.6
19:20 1022 30.18 851 25.13 27.1 80.8 13 -3.2 26.2
19:25 1022 30.18 851 25.13 26.9 80.3 16 -0.4 31.2
19:30 1022 30.18 851 25.13 26.3 79.3 20 1.6 35
19:35 1022 30.18 851 25.13 25.9 78.6 21 2.1 35.8
19:40 1022 30.18 851 25.13 25.6 78.1 23 3.4 38.1
19:45 1022 30.18 852 25.16 25.3 77.5 23 3.2 37.8
19:50 1022 30.18 852 25.16 25.2 77.4 22 2.1 35.8
19:55 1022 30.18 852 25.16 25 77 26 4.2 39.5
20:00 1022 30.18 852 25.16 24.3 75.8 25 3.3 37.9
20:05 1022 30.18 852 25.16 23.5 74.3 25 2.5 36.4
20:10 1022 30.18 852 25.16 22.8 73.1 25 2.2 36
20:15 1022 30.18 852 25.16 22.3 72.2 25 1.6 34.8
20:20 1023 30.21 852 25.16 21.8 71.3 27 2 35.6
20:25 1023 30.21 852 25.16 21.5 70.7 31 3.8 38.9
20:30 1023 30.21 852 25.16 21.3 70.3 27 1.8 35.2
20:35 1023 30.21 852 25.16 20.7 69.2 31 3 37.3
20:40 1023 30.21 852 25.16 20.2 68.4 26 0.5 32.9
20:45 1023 30.21 852 25.16 20.7 69.2 26 0.9 33.5
20:50 1023 30.21 852 25.16 20.7 69.2 28 1.8 35.2
20:55 1023 30.21 852 25.16 20.2 68.3 27 0.7 33.3
21:00 1023 30.21 852 25.16 19.9 67.9 26 -0.1 31.9
21:05 1023 30.21 852 25.16 19.9 67.8 25 -0.7 30.8
21:10 1023 30.21 852 25.16 20.1 68.1 23 -1.3 29.7
21:15 1023 30.21 852 25.16 20 68.1 25 -0.6 31
21:20 1023 30.21 852 25.16 19.7 67.5 25 -0.5 31.2
21:25 1023 30.21 852 25.16 19.3 66.8 26 -0.7 30.7
21:30 1023 30.21 852 25.16 19.2 66.5 26 -0.7 30.8
21:35 1023 30.21 852 25.16 19 66.1 27 -0.4 31.2
21:40 1023 30.21 852 25.16 18.8 65.8 26 -0.8 30.6
21:45 1023 30.21 852 25.16 18.7 65.7 26 -0.8 30.6
21:50 1023 30.21 852 25.16 18.6 65.5 26 -0.9 30.3
21:55 1023 30.21 852 25.16 18.5 65.2 26 -1.1 30.1
22:00 1023 30.21 852 25.16 18.5 65.3 26 -1.5 29.4
22:05 1023 30.21 852 25.16 18.7 65.6 25 -1.7 28.9
22:10 1023 30.21 852 25.16 18.8 65.9 24 -1.9 28.5
22:15 1023 30.21 852 25.16 19 66.2 24 -1.8 28.8
22:20 1023 30.21 852 25.16 19.2 66.6 23 -2.4 27.6
22:25 1023 30.21 852 25.16 19.7 67.4 23 -2 28.4
22:30 1023 30.21 852 25.16 19.3 66.7 24 -1.4 29.4
22:35 1023 30.21 852 25.16 18.7 65.6 24 -2.1 28.3
22:40 1023 30.21 852 25.16 19 66.2 23 -2.2 28
22:45 1023 30.21 852 25.16 18.8 65.9 25 -1.3 29.6
22:50 1023 30.21 852 25.16 18.3 65 26 -1.4 29.5
22:55 1023 30.21 852 25.16 18.1 64.6 27 -1.1 30
23:00 1023 30.21 852 25.16 17.8 64.1 27 -1.1 30.1
23:05 1023 30.21 852 25.16 17.7 63.8 29 -0.4 31.3
23:10 1023 30.21 852 25.16 17.6 63.6 28 -0.9 30.4
23:15 1023 30.21 852 25.16 17.8 64 27 -1.4 29.5
23:20 1023 30.21 852 25.16 17.9 64.2 28 -0.8 30.5
23:25 1023 30.21 852 25.16 17.7 63.8 28 -0.8 30.6
23:30 1023 30.21 852 25.16 17.5 63.5 29 -0.7 30.7
23:35 1023 30.21 852 25.16 17.7 63.9 27 -1.3 29.7
23:40 1023 30.21 852 25.16 18 64.3 27 -1.2 29.8
23:45 1023 30.21 852 25.16 17.9 64.2 27 -1.5 29.4
23:50 1023 30.21 852 25.16 18 64.3 28 -0.7 30.7
23:55 1023 30.21 852 25.16 17.1 62.7 31 -0.3 31.5
24:00 1023 30.21 852 25.16 17.1 62.7 28 -1.7 28.9